createdAt,value
2023-02-15T00:02:16.253Z,99.90
2023-02-15T00:07:20.035Z,99.90
2023-02-15T00:12:21.739Z,99.90
2023-02-15T00:17:23.486Z,99.90
2023-02-15T00:22:26.019Z,99.90
2023-02-15T00:27:27.682Z,99.90
2023-02-15T00:32:29.359Z,99.90
2023-02-15T00:37:31.104Z,99.90
2023-02-15T00:42:32.772Z,99.90
2023-02-15T00:47:34.450Z,99.90
2023-02-15T00:52:36.213Z,99.90
2023-02-15T00:57:37.878Z,99.90
2023-02-15T01:02:39.522Z,99.90
2023-02-15T01:07:41.184Z,99.90
2023-02-15T01:12:43.164Z,99.90
2023-02-15T01:17:50.467Z,99.90
2023-02-15T01:22:53.195Z,99.90
2023-02-15T01:27:54.890Z,99.90
2023-02-15T01:32:56.749Z,99.90
2023-02-15T01:37:58.552Z,99.90
2023-02-15T01:43:00.221Z,99.90
2023-02-15T01:48:09.240Z,99.90
2023-02-15T01:53:24.964Z,99.90
2023-02-15T01:58:30.079Z,99.90
2023-02-15T02:04:14.387Z,99.90
2023-02-15T02:09:16.594Z,99.90
2023-02-15T02:14:19.210Z,99.90
2023-02-15T02:19:41.141Z,99.90
2023-02-15T02:25:23.789Z,99.90
2023-02-15T02:30:47.159Z,99.90
2023-02-15T02:36:01.560Z,99.90
2023-02-15T02:41:28.979Z,99.90
2023-02-15T02:46:48.110Z,99.90
2023-02-15T02:51:59.878Z,99.90
2023-02-15T02:57:07.266Z,99.90
2023-02-15T03:02:14.692Z,99.90
2023-02-15T03:07:23.088Z,99.90
2023-02-15T03:12:30.851Z,99.90
2023-02-15T03:17:36.514Z,99.90
2023-02-15T03:22:45.497Z,99.90
2023-02-15T03:27:50.670Z,99.90
2023-02-15T03:32:53.841Z,99.90
2023-02-15T03:38:00.426Z,99.90
2023-02-15T03:43:33.551Z,99.90
2023-02-15T03:48:42.769Z,99.90
2023-02-15T03:53:47.460Z,99.90
2023-02-15T03:59:07.668Z,99.90
2023-02-15T04:04:25.517Z,99.90
2023-02-15T04:09:45.740Z,99.90
2023-02-15T04:15:06.301Z,99.90
2023-02-15T04:20:28.465Z,99.90
2023-02-15T04:25:30.294Z,99.90
2023-02-15T04:30:31.995Z,99.90
2023-02-15T04:35:34.472Z,99.90
2023-02-15T04:40:36.188Z,99.90
2023-02-15T04:45:37.875Z,99.90
2023-02-15T04:50:39.533Z,99.90
2023-02-15T04:55:41.743Z,99.90
2023-02-15T05:00:43.428Z,99.90
2023-02-15T05:05:45.174Z,99.90
2023-02-15T05:10:49.582Z,99.90
2023-02-15T05:15:52.601Z,99.90
2023-02-15T05:20:54.392Z,99.90
2023-02-15T05:26:14.962Z,99.90
2023-02-15T05:31:20.709Z,99.90
2023-02-15T05:36:22.574Z,99.90
2023-02-15T05:41:25.093Z,99.90
2023-02-15T05:46:26.851Z,99.90
2023-02-15T05:51:28.600Z,99.90
2023-02-15T05:56:30.232Z,99.90
2023-02-15T06:01:31.894Z,99.90
2023-02-15T06:06:35.423Z,99.90
2023-02-15T06:11:37.084Z,99.90
2023-02-15T06:16:38.818Z,99.90
2023-02-15T06:21:41.628Z,99.90
2023-02-15T06:26:43.306Z,99.90
2023-02-15T06:31:45.050Z,99.90
2023-02-15T06:36:46.845Z,99.90
2023-02-15T06:41:48.521Z,99.90
2023-02-15T06:46:50.416Z,99.90
2023-02-15T06:51:52.081Z,99.90
2023-02-15T06:56:53.754Z,99.90
2023-02-15T07:01:55.480Z,99.90
2023-02-15T07:06:57.158Z,99.90
2023-02-15T07:12:17.558Z,99.90
2023-02-15T07:17:34.978Z,99.90
2023-02-15T07:22:38.087Z,99.90
2023-02-15T07:27:39.935Z,99.90
2023-02-15T07:33:04.634Z,99.90
2023-02-15T07:38:06.878Z,99.90
2023-02-15T07:43:08.545Z,99.90
2023-02-15T07:48:10.516Z,99.90
2023-02-15T07:53:12.230Z,99.90
2023-02-15T07:58:13.987Z,99.90
2023-02-15T08:03:15.854Z,99.90
2023-02-15T08:08:32.685Z,99.90
2023-02-15T08:13:34.331Z,99.90
2023-02-15T08:18:36.058Z,99.90
2023-02-15T08:23:37.711Z,99.90
2023-02-15T08:28:40.202Z,99.90
2023-02-15T08:33:43.627Z,99.90
2023-02-15T08:38:45.475Z,99.90
2023-02-15T08:43:50.220Z,99.90
2023-02-15T08:48:52.241Z,99.90
2023-02-15T08:53:55.862Z,99.90
2023-02-15T08:58:58.005Z,99.90
2023-02-15T09:04:06.352Z,99.90
2023-02-15T09:09:09.369Z,99.90
2023-02-15T09:14:16.669Z,99.90
2023-02-15T09:19:20.108Z,99.90
2023-02-15T09:24:21.884Z,99.90
2023-02-15T09:29:23.877Z,99.90
2023-02-15T09:34:25.599Z,99.90
2023-02-15T09:39:30.523Z,99.90
2023-02-15T09:44:35.207Z,99.90
2023-02-15T09:50:00.401Z,99.90
2023-02-15T09:55:35.945Z,99.90
2023-02-15T10:01:02.855Z,99.90
2023-02-15T10:06:16.998Z,99.90
2023-02-15T10:11:40.101Z,99.90
2023-02-15T10:16:58.456Z,99.90
2023-02-15T10:22:16.360Z,99.60
2023-02-15T10:27:21.980Z,97.00
2023-02-15T10:32:30.313Z,91.50
2023-02-15T10:37:47.377Z,85.70
2023-02-15T10:42:54.978Z,82.30
2023-02-15T10:48:11.574Z,77.80
2023-02-15T10:53:41.079Z,78.20
2023-02-15T10:58:42.804Z,74.10
2023-02-15T11:04:29.089Z,70.70
2023-02-15T11:09:41.852Z,69.90
2023-02-15T11:14:55.177Z,68.50
2023-02-15T11:20:10.450Z,67.80
2023-02-15T11:25:35.211Z,69.60
2023-02-15T11:30:45.784Z,71.30
2023-02-15T11:36:00.460Z,70.30
2023-02-15T11:41:25.325Z,69.70
2023-02-15T11:46:27.135Z,70.30
2023-02-15T11:51:29.898Z,68.90
2023-02-15T11:56:34.194Z,68.40
2023-02-15T12:01:45.606Z,66.90
2023-02-15T12:07:08.854Z,68.30
2023-02-15T12:12:30.924Z,65.10
2023-02-15T12:17:37.790Z,64.90
2023-02-15T12:22:46.266Z,61.20
2023-02-15T12:27:49.054Z,60.50
2023-02-15T12:32:57.308Z,59.10
2023-02-15T12:38:10.005Z,58.20
2023-02-15T12:43:32.795Z,57.70
2023-02-15T12:48:40.650Z,56.60
2023-02-15T12:53:45.063Z,55.20
2023-02-15T12:58:47.027Z,54.10
2023-02-15T13:04:07.512Z,53.70
2023-02-15T13:09:39.555Z,53.80
2023-02-15T13:14:46.517Z,53.40
2023-02-15T13:19:52.868Z,53.60
2023-02-15T13:24:58.541Z,53.00
2023-02-15T13:30:04.371Z,52.30
2023-02-15T13:35:09.465Z,53.10
2023-02-15T13:40:19.263Z,54.00
2023-02-15T13:45:31.904Z,54.70
2023-02-15T13:50:44.639Z,55.60
2023-02-15T13:55:55.427Z,56.20
2023-02-15T14:01:02.311Z,56.20
2023-02-15T14:06:45.384Z,58.40
2023-02-15T14:12:24.479Z,58.30
2023-02-15T14:17:32.471Z,58.60
2023-02-15T14:22:41.880Z,59.20
2023-02-15T14:28:15.708Z,59.30
2023-02-15T14:33:39.272Z,59.50
2023-02-15T14:38:54.637Z,60.20
2023-02-15T14:44:17.497Z,61.30
2023-02-15T14:49:36.352Z,61.40
2023-02-15T14:54:37.993Z,62.20
2023-02-15T14:59:45.848Z,62.40
2023-02-15T15:04:59.751Z,63.40
2023-02-15T15:10:27.485Z,64.30
2023-02-15T15:15:32.345Z,65.50
2023-02-15T15:20:41.869Z,67.00
2023-02-15T15:25:55.370Z,67.00
2023-02-15T15:31:00.559Z,69.00
2023-02-15T15:36:18.017Z,70.80
2023-02-15T15:41:45.171Z,71.80
2023-02-15T15:47:13.429Z,72.90
2023-02-15T15:52:18.058Z,73.70
2023-02-15T15:57:43.802Z,76.60
2023-02-15T16:02:51.997Z,80.70
2023-02-15T16:07:53.767Z,84.80
2023-02-15T16:12:56.071Z,88.40
2023-02-15T16:17:59.517Z,90.70
2023-02-15T16:23:39.739Z,92.60
2023-02-15T16:28:48.221Z,93.30
2023-02-15T16:33:54.440Z,93.80
2023-02-15T16:38:56.052Z,95.00
2023-02-15T16:44:03.971Z,96.00
2023-02-15T16:49:16.344Z,96.60
2023-02-15T16:54:23.480Z,97.60
2023-02-15T16:59:40.649Z,98.40
2023-02-15T17:04:43.267Z,98.80
2023-02-15T17:09:53.612Z,99.80
2023-02-15T17:14:56.146Z,99.90
2023-02-15T17:19:58.041Z,99.90
2023-02-15T17:25:02.343Z,99.90
2023-02-15T17:30:15.624Z,99.90
2023-02-15T17:35:21.908Z,99.90
2023-02-15T17:40:29.485Z,99.90
2023-02-15T17:45:38.654Z,99.90
2023-02-15T17:50:40.862Z,99.90
2023-02-15T17:55:43.591Z,99.90
2023-02-15T18:01:18.514Z,99.90
2023-02-15T18:06:38.836Z,99.90
2023-02-15T18:11:40.590Z,99.90
2023-02-15T18:16:45.536Z,99.90
2023-02-15T18:21:47.870Z,99.90
2023-02-15T18:26:49.650Z,99.90
2023-02-15T18:31:55.973Z,99.90
2023-02-15T18:36:59.258Z,99.90
2023-02-15T18:42:01.313Z,99.90
2023-02-15T18:47:03.038Z,99.90
2023-02-15T18:52:04.922Z,99.90
2023-02-15T18:57:10.384Z,99.90
2023-02-15T19:02:14.275Z,99.90
2023-02-15T19:07:26.111Z,99.90
2023-02-15T19:12:31.210Z,99.90
2023-02-15T19:17:32.862Z,99.90
2023-02-15T19:22:34.860Z,99.90
2023-02-15T19:27:36.964Z,99.90
2023-02-15T19:32:38.737Z,99.90
2023-02-15T19:37:43.644Z,99.90
2023-02-15T19:42:45.339Z,99.90
2023-02-15T19:47:49.982Z,99.90
2023-02-15T19:52:52.012Z,99.90
2023-02-15T19:57:55.320Z,99.90
2023-02-15T20:02:59.274Z,99.90
2023-02-15T20:08:03.963Z,99.90
2023-02-15T20:13:05.687Z,99.90
2023-02-15T20:18:08.134Z,99.90
2023-02-15T20:23:31.924Z,99.90
2023-02-15T20:28:33.601Z,99.90
2023-02-15T20:33:35.248Z,99.90
2023-02-15T20:38:36.944Z,99.90
2023-02-15T20:43:39.447Z,99.90
2023-02-15T20:48:41.190Z,99.90
2023-02-15T20:53:42.877Z,99.90
2023-02-15T20:58:44.605Z,99.90
2023-02-15T21:03:47.295Z,99.90
2023-02-15T21:08:48.990Z,99.90
2023-02-15T21:13:51.148Z,99.90
2023-02-15T21:18:52.850Z,99.90
2023-02-15T21:23:54.660Z,99.90
2023-02-15T21:28:56.842Z,99.90
2023-02-15T21:33:58.486Z,99.90
2023-02-15T21:39:00.526Z,99.90
2023-02-15T21:44:21.340Z,99.90
2023-02-15T21:49:23.099Z,99.90
2023-02-15T21:54:26.270Z,99.90
2023-02-15T21:59:28.006Z,99.90
2023-02-15T22:04:30.779Z,99.90
2023-02-15T22:09:38.004Z,99.90
2023-02-15T22:14:41.465Z,99.90
2023-02-15T22:19:44.532Z,99.90
2023-02-15T22:24:46.667Z,99.90
2023-02-15T22:29:49.694Z,99.90
2023-02-15T22:34:52.791Z,99.90
2023-02-15T22:39:54.612Z,99.90
2023-02-15T22:44:57.845Z,99.90
2023-02-15T22:49:59.481Z,99.90
2023-02-15T22:55:01.118Z,99.90
2023-02-15T23:00:03.843Z,99.90
2023-02-15T23:05:05.764Z,99.90
2023-02-15T23:10:21.023Z,99.90
2023-02-15T23:15:22.738Z,99.90
2023-02-15T23:20:25.506Z,99.90
2023-02-15T23:25:28.102Z,99.90
2023-02-15T23:30:29.994Z,99.90
2023-02-15T23:35:31.674Z,99.90
2023-02-15T23:40:51.817Z,99.90
2023-02-15T23:45:53.570Z,99.90
2023-02-15T23:50:55.263Z,99.90
2023-02-15T23:55:57.833Z,99.90
